Time;durP1;ratioP1;P1;durP2;ratioP2;P2;SDS_P1;SDS_P2;PMS_P1;PMS_P2;Temp;Humidity;BMP_temperature;BMP_pressure;BME280_temperature;BME280_humidity;BME280_pressure;Samples;Min_cycle;Max_cycle;Signal;HPM_P1;HPM_P2
2021/04/12 07:35:43;;;;;;;37.08;23.38;;;;;;;6.64;80.17;100636.01;1640950;83;21726;-41
2021/04/12 07:39:35;;;;;;;36.77;21.75;;;;;;;6.63;80.69;100627.33;1664553;83;21713;-49
2021/04/12 07:52:16;;;;;;;37.78;23.12;;;;;;;6.79;80.64;100629.84;1681368;84;21654;-47
2021/04/12 07:55:59;;;;;;;36.53;21.95;;;;;;;6.88;80.64;100622.20;1681647;83;21183;-48
2021/04/12 07:59:04;;;;;;;40.65;24.05;;;;;;;6.97;81.05;100618.05;1665548;83;21205;-49
2021/04/12 08:02:25;;;;;;;41.30;22.62;;;;;;;7.14;81.07;100619.25;1667467;83;21507;-40
2021/04/12 08:15:12;;;;;;;29.05;19.12;;;;;;;7.77;80.27;100608.62;1594713;88;22249;-48
2021/04/12 08:28:17;;;;;;;33.70;20.35;;;;;;;8.32;77.58;100602.95;1792682;78;21142;-39
2021/04/12 08:31:29;;;;;;;25.02;17.87;;;;;;;8.45;76.09;100600.98;1795392;78;21887;-40
2021/04/12 08:34:42;;;;;;;26.70;18.48;;;;;;;8.57;76.06;100597.67;1794669;78;21554;-39
2021/04/12 08:37:39;;;;;;;36.03;22.15;;;;;;;8.73;75.18;100591.36;1761367;78;21142;-48
2021/04/12 08:40:44;;;;;;;33.88;21.10;;;;;;;8.91;74.68;100593.74;1779302;78;21308;-48
2021/04/12 08:43:32;;;;;;;34.92;21.90;;;;;;;9.02;73.73;100590.39;1734132;81;21918;-48
2021/04/12 08:46:26;;;;;;;31.02;19.55;;;;;;;9.02;72.38;100584.30;1662316;83;21197;-49
2021/04/12 08:49:41;;;;;;;24.87;17.05;;;;;;;9.02;72.31;100580.38;1732325;81;21173;-40
2021/04/12 08:52:55;;;;;;;29.57;18.77;;;;;;;9.11;72.90;100578.31;1712077;82;21645;-47
2021/04/12 08:55:51;;;;;;;34.10;19.87;;;;;;;9.12;71.62;100573.10;1666513;83;21329;-48
2021/04/12 08:58:59;;;;;;;29.15;18.98;;;;;;;9.14;72.43;100570.06;1679082;83;21272;-47
2021/04/12 09:02:04;;;;;;;28.47;18.25;;;;;;;9.25;72.36;100571.05;1701001;82;21343;-41
2021/04/12 09:05:03;;;;;;;32.90;20.00;;;;;;;9.37;71.51;100574.20;1702461;82;21186;-48
2021/04/12 09:07:58;;;;;;;26.25;18.37;;;;;;;9.47;71.71;100566.91;1694613;82;21670;-40
2021/04/12 09:11:11;;;;;;;29.85;18.48;;;;;;;9.52;70.78;100569.14;1716803;81;21239;-46
2021/04/12 09:13:58;;;;;;;26.93;17.50;;;;;;;9.52;70.79;100561.73;1720478;81;21266;-46
2021/04/12 09:17:40;;;;;;;27.20;19.30;;;;;;;9.49;70.28;100567.78;1729211;81;21667;-40
2021/04/12 09:21:59;;;;;;;29.10;19.07;;;;;;;9.39;70.86;100562.03;1722419;81;21423;-40
2021/04/12 09:25:52;;;;;;;28.67;16.27;;;;;;;9.36;71.38;100560.72;1754946;79;21185;-47
2021/04/12 09:29:41;;;;;;;27.10;18.95;;;;;;;9.38;71.87;100556.37;1732222;81;21146;-39
2021/04/12 09:33:28;;;;;;;28.00;18.45;;;;;;;9.47;72.20;100552.98;1729876;81;21237;-48
2021/04/12 09:36:28;;;;;;;27.77;16.87;;;;;;;9.47;72.81;100549.06;1732861;81;21190;-40
2021/04/12 09:39:21;;;;;;;32.15;16.93;;;;;;;9.48;72.53;100549.06;1741849;81;21708;-39
2021/04/12 09:42:26;;;;;;;30.32;17.65;;;;;;;9.48;72.30;100537.75;1740130;80;21999;-47
2021/04/12 09:45:24;;;;;;;26.02;18.95;;;;;;;9.48;72.26;100538.62;1750572;81;21643;-47
2021/04/12 09:48:20;;;;;;;30.62;19.48;;;;;;;9.55;73.08;100546.94;1749375;81;21190;-41
2021/04/12 09:51:22;;;;;;;33.85;19.37;;;;;;;9.72;72.53;100547.51;1745680;81;21648;-49
2021/04/12 09:54:29;;;;;;;34.48;22.40;;;;;;;9.79;71.62;100550.17;1738201;81;21210;-48
2021/04/12 09:57:23;;;;;;;32.75;18.23;;;;;;;9.85;71.30;100546.29;1747417;81;21351;-41
2021/04/12 10:00:00;;;;;;;32.45;17.55;;;;;;;9.90;71.20;100555.47;1740260;80;21167;-47
2021/04/12 10:02:49;;;;;;;30.35;17.10;;;;;;;9.93;71.03;100548.98;1725340;81;21174;-39
2021/04/12 10:05:51;;;;;;;28.05;18.07;;;;;;;9.96;70.21;100545.06;1704778;81;22184;-39
2021/04/12 10:08:39;;;;;;;21.77;15.70;;;;;;;9.99;69.45;100549.45;1663528;84;22250;-47
2021/04/12 10:11:19;;;;;;;36.60;19.70;;;;;;;9.99;68.70;100545.53;1677939;83;21153;-41
2021/04/12 10:14:57;;;;;;;32.00;18.65;;;;;;;10.03;68.98;100547.27;1787126;78;23501;-41
2021/04/12 10:27:05;;;;;;;36.50;17.98;;;;;;;10.19;67.84;100551.73;1707549;80;21166;-38
2021/04/12 10:35:34;;;;;;;25.88;17.30;;;;;;;10.30;67.71;100547.47;1732919;80;21170;-39
2021/04/12 10:43:24;;;;;;;29.48;17.60;;;;;;;10.34;67.22;100552.30;1736180;80;21179;-43
2021/04/12 10:46:12;;;;;;;37.30;18.10;;;;;;;10.29;67.48;100556.63;1733940;80;21230;-42
2021/04/12 10:49:20;;;;;;;27.85;19.25;;;;;;;10.24;67.47;100562.26;1731146;80;21694;-40
2021/04/12 10:53:04;;;;;;;31.17;16.75;;;;;;;10.25;67.77;100562.26;1738906;81;21909;-47
2021/04/12 11:00:28;;;;;;;29.77;17.48;;;;;;;10.31;67.60;100557.06;1740719;80;21151;-47
2021/04/12 11:14:22;;;;;;;28.80;16.73;;;;;;;10.50;67.67;100555.87;1767404;79;22550;-41
2021/04/12 11:18:26;;;;;;;28.75;16.20;;;;;;;10.48;67.74;100555.84;1706500;82;21519;-49
2021/04/12 11:22:14;;;;;;;26.52;18.12;;;;;;;10.58;68.02;100558.94;1794520;78;22450;-40
2021/04/12 11:25:04;;;;;;;36.10;20.12;;;;;;;10.55;68.07;100557.64;1753180;79;21654;-41
2021/04/12 11:28:08;;;;;;;32.67;18.20;;;;;;;10.62;68.52;100554.17;1772046;79;21180;-41
2021/04/12 11:30:45;;;;;;;29.18;18.77;;;;;;;10.66;68.04;100553.29;1772199;79;21215;-40
2021/04/12 11:33:38;;;;;;;32.65;19.90;;;;;;;10.72;67.81;100550.27;1756607;80;21138;-47
2021/04/12 11:36:27;;;;;;;40.88;19.92;;;;;;;10.76;67.99;100541.56;1758234;79;22090;-47
2021/04/12 11:39:29;;;;;;;31.50;18.05;;;;;;;10.81;67.58;100547.25;1768246;79;21780;-46
2021/04/12 11:42:03;;;;;;;;;;;;;;;10.86;67.69;100538.11;1750072;79;21168;-40
2021/04/12 11:44:39;;;;;;;29.23;17.95;;;;;;;10.91;67.74;100535.07;1757560;79;20518;-41
2021/04/12 11:47:46;;;;;;;28.05;19.10;;;;;;;10.96;67.42;100536.36;1740955;80;21171;-48
